sensor_id;sensor_type;location;lat;lon;timestamp;temperature;humidity
42085;DHT22;27746;52.228;20.890;2023-03-15T00:01:57;9.80;99.90
42085;DHT22;27746;52.228;20.890;2023-03-15T00:04:24;9.80;99.90
42085;DHT22;27746;52.228;20.890;2023-03-15T00:06:51;9.70;99.90
42085;DHT22;27746;52.228;20.890;2023-03-15T00:09:19;9.80;99.90
42085;DHT22;27746;52.228;20.890;2023-03-15T00:11:48;9.80;99.90
42085;DHT22;27746;52.228;20.890;2023-03-15T00:14:15;9.70;99.90
42085;DHT22;27746;52.228;20.890;2023-03-15T00:16:42;9.80;99.90
42085;DHT22;27746;52.228;20.890;2023-03-15T00:19:09;9.80;99.90
42085;DHT22;27746;52.228;20.890;2023-03-15T00:21:36;9.70;99.90
42085;DHT22;27746;52.228;20.890;2023-03-15T00:24:04;9.70;99.90
42085;DHT22;27746;52.228;20.890;2023-03-15T00:26:32;9.70;99.90
42085;DHT22;27746;52.228;20.890;2023-03-15T00:29:00;9.70;99.90
42085;DHT22;27746;52.228;20.890;2023-03-15T00:31:27;9.70;99.90
42085;DHT22;27746;52.228;20.890;2023-03-15T00:33:54;9.80;99.90
42085;DHT22;27746;52.228;20.890;2023-03-15T00:36:22;9.80;99.90
42085;DHT22;27746;52.228;20.890;2023-03-15T00:38:50;9.70;99.90
42085;DHT22;27746;52.228;20.890;2023-03-15T00:41:19;9.60;99.90
42085;DHT22;27746;52.228;20.890;2023-03-15T00:43:47;9.50;99.90
42085;DHT22;27746;52.228;20.890;2023-03-15T00:46:16;9.10;99.90
42085;DHT22;27746;52.228;20.890;2023-03-15T00:48:43;8.80;99.90
42085;DHT22;27746;52.228;20.890;2023-03-15T00:51:14;8.50;99.90
42085;DHT22;27746;52.228;20.890;2023-03-15T00:53:43;8.10;99.90
42085;DHT22;27746;52.228;20.890;2023-03-15T00:56:12;7.90;99.90
42085;DHT22;27746;52.228;20.890;2023-03-15T00:58:39;7.60;99.90
42085;DHT22;27746;52.228;20.890;2023-03-15T01:01:07;7.40;99.90
42085;DHT22;27746;52.228;20.890;2023-03-15T01:03:36;7.10;99.90
42085;DHT22;27746;52.228;20.890;2023-03-15T01:06:07;6.90;99.90
42085;DHT22;27746;52.228;20.890;2023-03-15T01:08:34;6.70;99.90
42085;DHT22;27746;52.228;20.890;2023-03-15T01:11:02;6.40;99.90
42085;DHT22;27746;52.228;20.890;2023-03-15T01:13:29;6.30;99.90
42085;DHT22;27746;52.228;20.890;2023-03-15T01:15:56;6.20;99.90
42085;DHT22;27746;52.228;20.890;2023-03-15T01:18:23;6.10;99.90
42085;DHT22;27746;52.228;20.890;2023-03-15T01:20:51;5.90;99.90
42085;DHT22;27746;52.228;20.890;2023-03-15T01:23:18;5.90;99.90
42085;DHT22;27746;52.228;20.890;2023-03-15T01:25:45;5.80;99.90
42085;DHT22;27746;52.228;20.890;2023-03-15T01:28:12;5.70;99.90
42085;DHT22;27746;52.228;20.890;2023-03-15T01:30:39;5.50;99.90
42085;DHT22;27746;52.228;20.890;2023-03-15T01:33:06;5.40;99.90
42085;DHT22;27746;52.228;20.890;2023-03-15T01:35:33;5.30;99.90
42085;DHT22;27746;52.228;20.890;2023-03-15T01:38:01;5.20;99.90
42085;DHT22;27746;52.228;20.890;2023-03-15T01:40:28;5.10;99.90
42085;DHT22;27746;52.228;20.890;2023-03-15T01:43:14;5.10;99.90
42085;DHT22;27746;52.228;20.890;2023-03-15T01:46:01;5.10;99.90
42085;DHT22;27746;52.228;20.890;2023-03-15T01:48:33;5.00;99.90
42085;DHT22;27746;52.228;20.890;2023-03-15T01:51:05;5.00;99.90
42085;DHT22;27746;52.228;20.890;2023-03-15T01:53:35;4.80;99.90
42085;DHT22;27746;52.228;20.890;2023-03-15T01:56:04;4.80;99.90
42085;DHT22;27746;52.228;20.890;2023-03-15T01:58:32;4.70;99.90
42085;DHT22;27746;52.228;20.890;2023-03-15T02:01:00;4.60;99.90
42085;DHT22;27746;52.228;20.890;2023-03-15T02:03:29;4.60;99.90
42085;DHT22;27746;52.228;20.890;2023-03-15T02:06:01;4.60;99.90
42085;DHT22;27746;52.228;20.890;2023-03-15T02:08:32;4.60;99.90
42085;DHT22;27746;52.228;20.890;2023-03-15T02:11:03;4.70;99.90
42085;DHT22;27746;52.228;20.890;2023-03-15T02:13:31;4.70;99.90
42085;DHT22;27746;52.228;20.890;2023-03-15T02:15:59;4.80;99.90
42085;DHT22;27746;52.228;20.890;2023-03-15T02:18:26;4.80;99.90
42085;DHT22;27746;52.228;20.890;2023-03-15T02:20:58;4.80;99.90
42085;DHT22;27746;52.228;20.890;2023-03-15T02:23:27;4.80;99.90
42085;DHT22;27746;52.228;20.890;2023-03-15T02:26:05;4.80;99.90
42085;DHT22;27746;52.228;20.890;2023-03-15T02:28:38;4.80;99.90
42085;DHT22;27746;52.228;20.890;2023-03-15T02:31:05;4.80;99.90
42085;DHT22;27746;52.228;20.890;2023-03-15T02:33:35;4.80;99.90
42085;DHT22;27746;52.228;20.890;2023-03-15T02:36:16;4.70;99.90
42085;DHT22;27746;52.228;20.890;2023-03-15T02:38:44;4.70;99.90
42085;DHT22;27746;52.228;20.890;2023-03-15T02:41:11;4.70;99.90
42085;DHT22;27746;52.228;20.890;2023-03-15T02:43:40;4.60;99.90
42085;DHT22;27746;52.228;20.890;2023-03-15T02:46:09;4.60;99.90
42085;DHT22;27746;52.228;20.890;2023-03-15T02:48:36;4.50;99.90
42085;DHT22;27746;52.228;20.890;2023-03-15T02:51:04;4.50;99.90
42085;DHT22;27746;52.228;20.890;2023-03-15T02:53:31;4.50;99.90
42085;DHT22;27746;52.228;20.890;2023-03-15T02:55:58;4.60;99.90
42085;DHT22;27746;52.228;20.890;2023-03-15T02:58:25;4.60;99.90
42085;DHT22;27746;52.228;20.890;2023-03-15T03:00:54;4.60;99.90
42085;DHT22;27746;52.228;20.890;2023-03-15T03:03:20;4.60;99.90
42085;DHT22;27746;52.228;20.890;2023-03-15T03:05:50;4.60;99.90
42085;DHT22;27746;52.228;20.890;2023-03-15T03:08:17;4.70;99.90
42085;DHT22;27746;52.228;20.890;2023-03-15T03:10:44;4.70;99.90
42085;DHT22;27746;52.228;20.890;2023-03-15T03:13:10;4.70;99.90
42085;DHT22;27746;52.228;20.890;2023-03-15T03:15:37;4.70;99.90
42085;DHT22;27746;52.228;20.890;2023-03-15T03:18:06;4.70;99.90
42085;DHT22;27746;52.228;20.890;2023-03-15T03:20:32;4.70;99.90
42085;DHT22;27746;52.228;20.890;2023-03-15T03:23:00;4.70;99.90
42085;DHT22;27746;52.228;20.890;2023-03-15T03:25:30;4.70;99.90
42085;DHT22;27746;52.228;20.890;2023-03-15T03:27:58;4.80;99.90
42085;DHT22;27746;52.228;20.890;2023-03-15T03:30:29;4.80;99.90
42085;DHT22;27746;52.228;20.890;2023-03-15T03:32:56;4.80;99.90
42085;DHT22;27746;52.228;20.890;2023-03-15T03:35:24;4.80;99.90
42085;DHT22;27746;52.228;20.890;2023-03-15T03:37:51;4.80;99.90
42085;DHT22;27746;52.228;20.890;2023-03-15T03:40:19;4.80;99.90
42085;DHT22;27746;52.228;20.890;2023-03-15T03:42:46;4.80;99.90
42085;DHT22;27746;52.228;20.890;2023-03-15T03:45:13;4.80;99.90
42085;DHT22;27746;52.228;20.890;2023-03-15T03:47:40;4.80;99.90
42085;DHT22;27746;52.228;20.890;2023-03-15T03:50:08;4.80;99.90
42085;DHT22;27746;52.228;20.890;2023-03-15T03:52:37;4.80;99.90
42085;DHT22;27746;52.228;20.890;2023-03-15T03:55:05;4.80;99.90
42085;DHT22;27746;52.228;20.890;2023-03-15T03:57:31;4.80;99.90
42085;DHT22;27746;52.228;20.890;2023-03-15T03:59:58;4.80;99.90
42085;DHT22;27746;52.228;20.890;2023-03-15T04:02:25;4.80;99.90
42085;DHT22;27746;52.228;20.890;2023-03-15T04:04:52;4.80;99.90
42085;DHT22;27746;52.228;20.890;2023-03-15T04:07:19;4.80;99.90
42085;DHT22;27746;52.228;20.890;2023-03-15T04:09:47;4.80;99.90
42085;DHT22;27746;52.228;20.890;2023-03-15T04:12:14;4.80;99.90
42085;DHT22;27746;52.228;20.890;2023-03-15T04:14:41;4.80;99.90
42085;DHT22;27746;52.228;20.890;2023-03-15T04:17:08;4.70;99.90
42085;DHT22;27746;52.228;20.890;2023-03-15T04:19:35;4.70;99.90
42085;DHT22;27746;52.228;20.890;2023-03-15T04:22:03;4.70;99.90
42085;DHT22;27746;52.228;20.890;2023-03-15T04:24:32;4.70;99.90
42085;DHT22;27746;52.228;20.890;2023-03-15T04:27:01;4.70;99.90
42085;DHT22;27746;52.228;20.890;2023-03-15T04:29:28;4.70;99.90
42085;DHT22;27746;52.228;20.890;2023-03-15T04:31:55;4.70;99.90
42085;DHT22;27746;52.228;20.890;2023-03-15T04:34:27;4.70;99.90
42085;DHT22;27746;52.228;20.890;2023-03-15T04:36:54;4.60;99.90
42085;DHT22;27746;52.228;20.890;2023-03-15T04:39:21;4.70;99.90
42085;DHT22;27746;52.228;20.890;2023-03-15T04:41:48;4.70;99.90
42085;DHT22;27746;52.228;20.890;2023-03-15T04:44:17;4.70;99.90
42085;DHT22;27746;52.228;20.890;2023-03-15T04:46:44;4.70;99.90
42085;DHT22;27746;52.228;20.890;2023-03-15T04:49:11;4.70;99.90
42085;DHT22;27746;52.228;20.890;2023-03-15T04:51:38;4.70;99.90
42085;DHT22;27746;52.228;20.890;2023-03-15T04:54:05;4.70;99.90
42085;DHT22;27746;52.228;20.890;2023-03-15T04:56:31;4.70;99.90
42085;DHT22;27746;52.228;20.890;2023-03-15T04:59:00;4.70;99.90
42085;DHT22;27746;52.228;20.890;2023-03-15T05:01:29;4.60;99.90
42085;DHT22;27746;52.228;20.890;2023-03-15T05:03:56;4.70;99.90
42085;DHT22;27746;52.228;20.890;2023-03-15T05:06:24;4.70;99.90
42085;DHT22;27746;52.228;20.890;2023-03-15T05:08:52;4.80;99.90
42085;DHT22;27746;52.228;20.890;2023-03-15T05:11:20;4.80;99.90
42085;DHT22;27746;52.228;20.890;2023-03-15T05:13:49;4.80;99.90
42085;DHT22;27746;52.228;20.890;2023-03-15T05:16:16;4.80;99.90
42085;DHT22;27746;52.228;20.890;2023-03-15T05:18:44;4.80;99.90
42085;DHT22;27746;52.228;20.890;2023-03-15T05:21:12;4.80;99.90
42085;DHT22;27746;52.228;20.890;2023-03-15T05:23:39;4.80;99.90
42085;DHT22;27746;52.228;20.890;2023-03-15T05:26:06;4.80;99.90
42085;DHT22;27746;52.228;20.890;2023-03-15T05:28:33;4.80;99.90
42085;DHT22;27746;52.228;20.890;2023-03-15T05:31:00;4.70;99.90
42085;DHT22;27746;52.228;20.890;2023-03-15T05:33:28;4.80;99.90
42085;DHT22;27746;52.228;20.890;2023-03-15T05:35:57;4.80;99.90
42085;DHT22;27746;52.228;20.890;2023-03-15T05:38:24;4.80;99.90
42085;DHT22;27746;52.228;20.890;2023-03-15T05:40:52;4.80;99.90
42085;DHT22;27746;52.228;20.890;2023-03-15T05:43:19;4.80;99.90
42085;DHT22;27746;52.228;20.890;2023-03-15T05:45:46;4.80;99.90
42085;DHT22;27746;52.228;20.890;2023-03-15T05:48:13;4.80;99.90
42085;DHT22;27746;52.228;20.890;2023-03-15T05:50:41;4.80;99.90
42085;DHT22;27746;52.228;20.890;2023-03-15T05:53:09;4.80;99.90
42085;DHT22;27746;52.228;20.890;2023-03-15T05:55:36;4.70;99.90
42085;DHT22;27746;52.228;20.890;2023-03-15T05:58:03;4.70;99.90
42085;DHT22;27746;52.228;20.890;2023-03-15T06:00:30;4.80;99.90
42085;DHT22;27746;52.228;20.890;2023-03-15T06:02:57;4.80;99.90
42085;DHT22;27746;52.228;20.890;2023-03-15T06:05:24;4.80;99.90
42085;DHT22;27746;52.228;20.890;2023-03-15T06:07:51;4.80;99.90
42085;DHT22;27746;52.228;20.890;2023-03-15T06:10:20;4.80;99.90
42085;DHT22;27746;52.228;20.890;2023-03-15T06:12:47;4.70;99.90
42085;DHT22;27746;52.228;20.890;2023-03-15T06:15:15;4.70;99.90
42085;DHT22;27746;52.228;20.890;2023-03-15T06:17:42;4.70;99.90
42085;DHT22;27746;52.228;20.890;2023-03-15T06:20:10;4.70;99.90
42085;DHT22;27746;52.228;20.890;2023-03-15T06:22:37;4.70;99.90
42085;DHT22;27746;52.228;20.890;2023-03-15T06:25:05;4.70;99.90
42085;DHT22;27746;52.228;20.890;2023-03-15T06:27:34;4.80;99.90
42085;DHT22;27746;52.228;20.890;2023-03-15T06:30:01;4.70;99.90
42085;DHT22;27746;52.228;20.890;2023-03-15T06:32:28;4.70;99.90
42085;DHT22;27746;52.228;20.890;2023-03-15T06:34:55;4.80;99.90
42085;DHT22;27746;52.228;20.890;2023-03-15T06:37:22;4.80;99.90
42085;DHT22;27746;52.228;20.890;2023-03-15T06:39:49;4.80;99.90
42085;DHT22;27746;52.228;20.890;2023-03-15T06:42:18;4.80;99.90
42085;DHT22;27746;52.228;20.890;2023-03-15T06:44:46;4.80;99.90
42085;DHT22;27746;52.228;20.890;2023-03-15T06:47:13;4.80;99.90
42085;DHT22;27746;52.228;20.890;2023-03-15T06:49:40;4.80;99.90
42085;DHT22;27746;52.228;20.890;2023-03-15T06:52:07;4.80;99.90
42085;DHT22;27746;52.228;20.890;2023-03-15T06:54:34;5.00;99.90
42085;DHT22;27746;52.228;20.890;2023-03-15T06:57:03;5.00;99.90
42085;DHT22;27746;52.228;20.890;2023-03-15T06:59:29;5.00;99.90
42085;DHT22;27746;52.228;20.890;2023-03-15T07:01:58;5.00;99.90
42085;DHT22;27746;52.228;20.890;2023-03-15T07:04:25;5.10;99.90
42085;DHT22;27746;52.228;20.890;2023-03-15T07:06:52;5.10;99.90
42085;DHT22;27746;52.228;20.890;2023-03-15T07:09:19;5.10;99.90
42085;DHT22;27746;52.228;20.890;2023-03-15T07:11:46;5.10;99.90
42085;DHT22;27746;52.228;20.890;2023-03-15T07:14:13;5.10;99.90
42085;DHT22;27746;52.228;20.890;2023-03-15T07:16:40;5.10;99.90
42085;DHT22;27746;52.228;20.890;2023-03-15T07:19:08;5.10;99.60
42085;DHT22;27746;52.228;20.890;2023-03-15T07:21:35;5.10;99.50
42085;DHT22;27746;52.228;20.890;2023-03-15T07:24:03;5.10;99.50
42085;DHT22;27746;52.228;20.890;2023-03-15T07:26:30;5.20;99.80
42085;DHT22;27746;52.228;20.890;2023-03-15T07:28:57;5.20;99.90
42085;DHT22;27746;52.228;20.890;2023-03-15T07:31:23;5.20;99.90
42085;DHT22;27746;52.228;20.890;2023-03-15T07:33:51;5.20;99.70
42085;DHT22;27746;52.228;20.890;2023-03-15T07:36:19;5.20;99.20
42085;DHT22;27746;52.228;20.890;2023-03-15T07:38:46;5.20;99.00
42085;DHT22;27746;52.228;20.890;2023-03-15T07:41:13;5.20;98.70
42085;DHT22;27746;52.228;20.890;2023-03-15T07:43:40;5.20;98.90
42085;DHT22;27746;52.228;20.890;2023-03-15T07:46:07;5.30;99.10
42085;DHT22;27746;52.228;20.890;2023-03-15T07:48:34;5.30;99.00
42085;DHT22;27746;52.228;20.890;2023-03-15T07:51:01;5.40;98.90
42085;DHT22;27746;52.228;20.890;2023-03-15T07:53:29;5.40;98.50
42085;DHT22;27746;52.228;20.890;2023-03-15T07:55:56;5.50;98.50
42085;DHT22;27746;52.228;20.890;2023-03-15T07:58:23;5.50;98.20
42085;DHT22;27746;52.228;20.890;2023-03-15T08:00:53;5.50;97.90
42085;DHT22;27746;52.228;20.890;2023-03-15T08:03:20;5.60;98.20
42085;DHT22;27746;52.228;20.890;2023-03-15T08:05:47;5.60;97.90
42085;DHT22;27746;52.228;20.890;2023-03-15T08:08:14;5.60;98.00
42085;DHT22;27746;52.228;20.890;2023-03-15T08:10:43;5.60;97.70
42085;DHT22;27746;52.228;20.890;2023-03-15T08:13:10;5.70;97.50
42085;DHT22;27746;52.228;20.890;2023-03-15T08:15:37;5.90;97.00
42085;DHT22;27746;52.228;20.890;2023-03-15T08:18:04;6.00;96.90
42085;DHT22;27746;52.228;20.890;2023-03-15T08:20:34;6.00;96.60
42085;DHT22;27746;52.228;20.890;2023-03-15T08:23:01;6.10;96.70
42085;DHT22;27746;52.228;20.890;2023-03-15T08:25:28;6.20;96.70
42085;DHT22;27746;52.228;20.890;2023-03-15T08:27:56;6.30;96.60
42085;DHT22;27746;52.228;20.890;2023-03-15T08:30:23;6.40;96.40
42085;DHT22;27746;52.228;20.890;2023-03-15T08:32:50;6.40;96.30
42085;DHT22;27746;52.228;20.890;2023-03-15T08:35:19;6.50;96.00
42085;DHT22;27746;52.228;20.890;2023-03-15T08:37:47;6.50;95.50
42085;DHT22;27746;52.228;20.890;2023-03-15T08:40:14;6.60;95.90
42085;DHT22;27746;52.228;20.890;2023-03-15T08:42:44;6.70;95.60
42085;DHT22;27746;52.228;20.890;2023-03-15T08:45:12;6.90;95.60
42085;DHT22;27746;52.228;20.890;2023-03-15T08:47:41;7.00;95.10
42085;DHT22;27746;52.228;20.890;2023-03-15T08:50:10;7.30;94.90
42085;DHT22;27746;52.228;20.890;2023-03-15T08:52:41;7.40;94.00
42085;DHT22;27746;52.228;20.890;2023-03-15T08:55:08;7.40;93.60
42085;DHT22;27746;52.228;20.890;2023-03-15T08:57:39;7.40;93.40
42085;DHT22;27746;52.228;20.890;2023-03-15T09:00:07;7.40;93.40
42085;DHT22;27746;52.228;20.890;2023-03-15T09:02:36;7.40;92.90
42085;DHT22;27746;52.228;20.890;2023-03-15T09:05:04;7.40;91.10
42085;DHT22;27746;52.228;20.890;2023-03-15T09:07:31;7.40;91.30
42085;DHT22;27746;52.228;20.890;2023-03-15T09:09:59;7.50;91.20
42085;DHT22;27746;52.228;20.890;2023-03-15T09:12:26;7.50;91.20
42085;DHT22;27746;52.228;20.890;2023-03-15T09:14:53;7.60;91.20
42085;DHT22;27746;52.228;20.890;2023-03-15T09:17:20;7.70;90.60
42085;DHT22;27746;52.228;20.890;2023-03-15T09:19:48;7.70;90.90
42085;DHT22;27746;52.228;20.890;2023-03-15T09:22:17;7.70;91.40
42085;DHT22;27746;52.228;20.890;2023-03-15T09:24:43;7.70;91.30
42085;DHT22;27746;52.228;20.890;2023-03-15T09:27:11;7.70;91.50
42085;DHT22;27746;52.228;20.890;2023-03-15T09:29:38;7.80;91.40
42085;DHT22;27746;52.228;20.890;2023-03-15T09:32:05;7.80;91.50
42085;DHT22;27746;52.228;20.890;2023-03-15T09:34:34;7.80;91.70
42085;DHT22;27746;52.228;20.890;2023-03-15T09:37:03;7.80;91.50
42085;DHT22;27746;52.228;20.890;2023-03-15T09:39:31;7.90;91.50
42085;DHT22;27746;52.228;20.890;2023-03-15T09:42:00;8.00;91.30
42085;DHT22;27746;52.228;20.890;2023-03-15T09:44:39;8.10;91.20
42085;DHT22;27746;52.228;20.890;2023-03-15T09:47:22;8.30;91.30
42085;DHT22;27746;52.228;20.890;2023-03-15T09:49:56;8.50;90.70
42085;DHT22;27746;52.228;20.890;2023-03-15T09:52:32;8.60;90.50
42085;DHT22;27746;52.228;20.890;2023-03-15T09:55:05;8.90;90.60
42085;DHT22;27746;52.228;20.890;2023-03-15T10:00:06;9.30;90.50
42085;DHT22;27746;52.228;20.890;2023-03-15T10:02:43;10.30;85.70
42085;DHT22;27746;52.228;20.890;2023-03-15T10:05:15;11.00;84.60
42085;DHT22;27746;52.228;20.890;2023-03-15T10:07:46;11.60;80.50
42085;DHT22;27746;52.228;20.890;2023-03-15T10:10:19;12.20;79.00
42085;DHT22;27746;52.228;20.890;2023-03-15T10:12:53;13.00;78.00
42085;DHT22;27746;52.228;20.890;2023-03-15T10:15:30;13.80;74.60
42085;DHT22;27746;52.228;20.890;2023-03-15T10:18:13;14.20;72.60
42085;DHT22;27746;52.228;20.890;2023-03-15T10:20:47;15.00;70.60
42085;DHT22;27746;52.228;20.890;2023-03-15T10:23:18;15.60;68.50
42085;DHT22;27746;52.228;20.890;2023-03-15T10:25:48;15.90;67.20
42085;DHT22;27746;52.228;20.890;2023-03-15T10:28:23;15.60;66.20
42085;DHT22;27746;52.228;20.890;2023-03-15T10:30:50;15.90;64.90
42085;DHT22;27746;52.228;20.890;2023-03-15T10:33:25;16.10;64.60
42085;DHT22;27746;52.228;20.890;2023-03-15T10:35:54;16.40;63.30
42085;DHT22;27746;52.228;20.890;2023-03-15T10:38:23;15.90;62.70
42085;DHT22;27746;52.228;20.890;2023-03-15T10:40:52;15.00;61.50
42085;DHT22;27746;52.228;20.890;2023-03-15T10:43:21;14.70;62.10
42085;DHT22;27746;52.228;20.890;2023-03-15T10:45:59;14.00;62.10
42085;DHT22;27746;52.228;20.890;2023-03-15T10:48:27;13.20;64.40
42085;DHT22;27746;52.228;20.890;2023-03-15T10:50:54;12.90;65.20
42085;DHT22;27746;52.228;20.890;2023-03-15T10:53:23;12.50;66.60
42085;DHT22;27746;52.228;20.890;2023-03-15T10:55:58;12.10;68.50
42085;DHT22;27746;52.228;20.890;2023-03-15T10:58:27;11.90;69.20
42085;DHT22;27746;52.228;20.890;2023-03-15T11:00:59;11.60;70.60
42085;DHT22;27746;52.228;20.890;2023-03-15T11:03:28;11.40;72.20
42085;DHT22;27746;52.228;20.890;2023-03-15T11:05:57;11.10;72.20
42085;DHT22;27746;52.228;20.890;2023-03-15T11:08:36;10.90;73.50
42085;DHT22;27746;52.228;20.890;2023-03-15T11:11:04;10.60;75.20
42085;DHT22;27746;52.228;20.890;2023-03-15T11:13:32;10.40;75.00
42085;DHT22;27746;52.228;20.890;2023-03-15T11:16:03;10.20;76.80
42085;DHT22;27746;52.228;20.890;2023-03-15T11:18:35;10.20;77.80
42085;DHT22;27746;52.228;20.890;2023-03-15T11:21:05;10.10;77.60
42085;DHT22;27746;52.228;20.890;2023-03-15T11:23:37;10.20;75.80
42085;DHT22;27746;52.228;20.890;2023-03-15T11:26:07;10.80;74.10
42085;DHT22;27746;52.228;20.890;2023-03-15T11:28:36;11.60;71.60
42085;DHT22;27746;52.228;20.890;2023-03-15T11:31:04;12.00;69.90
42085;DHT22;27746;52.228;20.890;2023-03-15T11:33:37;11.90;67.30
42085;DHT22;27746;52.228;20.890;2023-03-15T11:36:09;12.10;66.80
42085;DHT22;27746;52.228;20.890;2023-03-15T11:38:43;12.30;66.20
42085;DHT22;27746;52.228;20.890;2023-03-15T11:41:27;12.90;64.60
42085;DHT22;27746;52.228;20.890;2023-03-15T11:44:04;13.50;64.80
42085;DHT22;27746;52.228;20.890;2023-03-15T11:46:42;13.60;64.10
42085;DHT22;27746;52.228;20.890;2023-03-15T11:49:14;13.80;64.00
42085;DHT22;27746;52.228;20.890;2023-03-15T11:51:43;13.50;63.90
42085;DHT22;27746;52.228;20.890;2023-03-15T11:54:13;13.40;64.90
42085;DHT22;27746;52.228;20.890;2023-03-15T11:56:48;13.60;64.10
42085;DHT22;27746;52.228;20.890;2023-03-15T11:59:16;13.60;64.70
42085;DHT22;27746;52.228;20.890;2023-03-15T12:01:47;13.90;64.30
42085;DHT22;27746;52.228;20.890;2023-03-15T12:04:42;14.50;63.90
42085;DHT22;27746;52.228;20.890;2023-03-15T12:07:28;14.70;63.20
42085;DHT22;27746;52.228;20.890;2023-03-15T12:10:18;14.90;62.30
42085;DHT22;27746;52.228;20.890;2023-03-15T12:12:46;15.60;60.70
42085;DHT22;27746;52.228;20.890;2023-03-15T12:18:29;16.10;57.60
42085;DHT22;27746;52.228;20.890;2023-03-15T12:21:05;15.50;57.80
42085;DHT22;27746;52.228;20.890;2023-03-15T12:23:45;15.60;58.40
42085;DHT22;27746;52.228;20.890;2023-03-15T12:26:36;15.00;59.70
42085;DHT22;27746;52.228;20.890;2023-03-15T12:29:22;15.00;60.50
42085;DHT22;27746;52.228;20.890;2023-03-15T12:31:55;15.40;59.40
42085;DHT22;27746;52.228;20.890;2023-03-15T12:34:35;16.00;58.20
42085;DHT22;27746;52.228;20.890;2023-03-15T12:37:06;16.30;57.70
42085;DHT22;27746;52.228;20.890;2023-03-15T12:39:37;16.40;56.80
42085;DHT22;27746;52.228;20.890;2023-03-15T12:42:12;15.50;57.60
42085;DHT22;27746;52.228;20.890;2023-03-15T12:44:40;14.70;58.60
42085;DHT22;27746;52.228;20.890;2023-03-15T12:47:08;13.60;59.50
42085;DHT22;27746;52.228;20.890;2023-03-15T12:49:38;13.20;61.60
42085;DHT22;27746;52.228;20.890;2023-03-15T12:52:26;13.10;61.80
42085;DHT22;27746;52.228;20.890;2023-03-15T12:55:00;13.10;62.20
42085;DHT22;27746;52.228;20.890;2023-03-15T12:57:36;13.10;62.80
42085;DHT22;27746;52.228;20.890;2023-03-15T13:00:10;12.80;62.80
42085;DHT22;27746;52.228;20.890;2023-03-15T13:02:44;12.50;63.20
42085;DHT22;27746;52.228;20.890;2023-03-15T13:05:17;12.50;64.00
42085;DHT22;27746;52.228;20.890;2023-03-15T13:07:57;12.30;64.10
42085;DHT22;27746;52.228;20.890;2023-03-15T13:10:35;12.00;66.00
42085;DHT22;27746;52.228;20.890;2023-03-15T13:13:17;11.70;66.20
42085;DHT22;27746;52.228;20.890;2023-03-15T13:15:57;11.40;66.80
42085;DHT22;27746;52.228;20.890;2023-03-15T13:18:29;11.10;66.60
42085;DHT22;27746;52.228;20.890;2023-03-15T13:21:07;10.90;67.80
42085;DHT22;27746;52.228;20.890;2023-03-15T13:23:36;10.70;68.10
42085;DHT22;27746;52.228;20.890;2023-03-15T13:26:16;10.40;69.60
42085;DHT22;27746;52.228;20.890;2023-03-15T13:28:49;10.30;69.10
42085;DHT22;27746;52.228;20.890;2023-03-15T13:31:19;10.30;69.50
42085;DHT22;27746;52.228;20.890;2023-03-15T22:45:32;10.10;69.30
42085;DHT22;27746;52.228;20.890;2023-03-15T22:47:59;2.80;97.90
42085;DHT22;27746;52.228;20.890;2023-03-15T22:50:26;2.60;97.60
42085;DHT22;27746;52.228;20.890;2023-03-15T22:52:57;2.50;97.50
42085;DHT22;27746;52.228;20.890;2023-03-15T22:55:24;2.50;97.60
42085;DHT22;27746;52.228;20.890;2023-03-15T22:57:51;2.50;97.60
42085;DHT22;27746;52.228;20.890;2023-03-15T23:00:21;2.50;97.60
42085;DHT22;27746;52.228;20.890;2023-03-15T23:02:51;2.40;97.50
42085;DHT22;27746;52.228;20.890;2023-03-15T23:05:19;2.40;97.60
42085;DHT22;27746;52.228;20.890;2023-03-15T23:07:46;2.40;97.60
42085;DHT22;27746;52.228;20.890;2023-03-15T23:10:15;2.40;97.60
42085;DHT22;27746;52.228;20.890;2023-03-15T23:12:42;2.30;97.80
42085;DHT22;27746;52.228;20.890;2023-03-15T23:15:10;2.30;97.80
42085;DHT22;27746;52.228;20.890;2023-03-15T23:17:39;2.30;97.90
42085;DHT22;27746;52.228;20.890;2023-03-15T23:20:12;2.30;98.20
42085;DHT22;27746;52.228;20.890;2023-03-15T23:22:39;2.30;98.00
42085;DHT22;27746;52.228;20.890;2023-03-15T23:25:07;2.30;98.20
42085;DHT22;27746;52.228;20.890;2023-03-15T23:27:36;2.20;98.20
42085;DHT22;27746;52.228;20.890;2023-03-15T23:30:04;2.20;98.30
42085;DHT22;27746;52.228;20.890;2023-03-15T23:32:31;2.20;98.40
42085;DHT22;27746;52.228;20.890;2023-03-15T23:35:01;2.10;98.50
42085;DHT22;27746;52.228;20.890;2023-03-15T23:37:28;2.10;98.70
42085;DHT22;27746;52.228;20.890;2023-03-15T23:39:57;2.10;98.80
42085;DHT22;27746;52.228;20.890;2023-03-15T23:42:24;2.00;98.90
42085;DHT22;27746;52.228;20.890;2023-03-15T23:44:54;2.00;99.10
42085;DHT22;27746;52.228;20.890;2023-03-15T23:47:21;2.00;99.10
42085;DHT22;27746;52.228;20.890;2023-03-15T23:49:48;2.00;99.20
42085;DHT22;27746;52.228;20.890;2023-03-15T23:52:16;2.00;99.30
42085;DHT22;27746;52.228;20.890;2023-03-15T23:54:43;2.00;99.40
42085;DHT22;27746;52.228;20.890;2023-03-15T23:57:11;1.90;99.40
42085;DHT22;27746;52.228;20.890;2023-03-15T23:59:40;1.90;99.50
